createdAt,value
2022-12-31T00:01:42.547Z,11.99
2022-12-31T00:04:08.992Z,11.95
2022-12-31T00:06:36.219Z,11.89
2022-12-31T00:09:06.025Z,11.92
2022-12-31T00:11:32.752Z,11.78
2022-12-31T00:13:59.570Z,11.88
2022-12-31T00:16:28.829Z,11.86
2022-12-31T00:18:59.099Z,11.90
2022-12-31T00:21:26.663Z,11.93
2022-12-31T00:23:53.107Z,11.92
2022-12-31T00:26:25.053Z,11.84
2022-12-31T00:28:52.906Z,11.90
2022-12-31T00:31:30.423Z,11.84
2022-12-31T00:33:57.568Z,11.89
2022-12-31T00:36:35.349Z,11.89
2022-12-31T00:39:03.410Z,11.93
2022-12-31T00:41:30.715Z,11.90
2022-12-31T00:43:57.534Z,11.93
2022-12-31T00:46:25.042Z,11.93
2022-12-31T00:48:51.673Z,11.93
2022-12-31T00:51:20.780Z,11.94
2022-12-31T00:53:47.566Z,11.89
2022-12-31T00:56:16.695Z,11.90
2022-12-31T00:58:43.460Z,11.84
2022-12-31T01:01:18.159Z,11.90
2022-12-31T01:03:44.926Z,11.95
2022-12-31T01:06:11.826Z,11.90
2022-12-31T01:08:38.464Z,11.88
2022-12-31T01:11:22.265Z,11.88
2022-12-31T01:13:53.389Z,11.93
2022-12-31T01:16:22.864Z,11.86
2022-12-31T01:18:49.561Z,11.90
2022-12-31T01:21:16.526Z,11.91
2022-12-31T01:23:43.301Z,11.86
2022-12-31T01:26:11.544Z,11.83
2022-12-31T01:28:38.255Z,11.82
2022-12-31T01:31:09.022Z,11.82
2022-12-31T01:33:35.570Z,11.82
2022-12-31T01:36:04.244Z,11.76
2022-12-31T01:38:30.641Z,11.79
2022-12-31T01:40:57.145Z,11.78
2022-12-31T01:43:23.551Z,11.71
2022-12-31T01:45:53.500Z,11.71
2022-12-31T01:48:23.639Z,11.76
2022-12-31T01:50:50.713Z,11.66
2022-12-31T01:53:18.214Z,11.57
2022-12-31T01:55:55.831Z,11.61
2022-12-31T01:58:30.521Z,11.63
2022-12-31T02:00:58.232Z,11.56
2022-12-31T02:03:25.659Z,11.61
2022-12-31T02:06:13.909Z,11.53
2022-12-31T02:08:42.291Z,11.52
2022-12-31T02:11:23.800Z,11.54
2022-12-31T02:13:55.025Z,11.56
2022-12-31T02:16:50.946Z,11.39
2022-12-31T02:19:29.499Z,11.51
2022-12-31T02:22:03.238Z,11.55
2022-12-31T02:24:29.674Z,11.58
2022-12-31T02:27:19.592Z,11.56
2022-12-31T02:30:15.345Z,11.50
2022-12-31T02:33:02.362Z,11.53
2022-12-31T02:35:36.948Z,11.54
2022-12-31T02:38:11.844Z,11.60
2022-12-31T02:40:38.705Z,11.60
2022-12-31T02:43:05.584Z,11.56
2022-12-31T02:45:44.730Z,11.46
2022-12-31T02:48:25.676Z,11.53
2022-12-31T02:51:12.185Z,11.53
2022-12-31T02:54:05.990Z,11.45
2022-12-31T02:56:42.355Z,11.44
2022-12-31T02:59:45.696Z,11.46
2022-12-31T03:02:16.001Z,11.45
2022-12-31T03:04:46.185Z,11.51
2022-12-31T03:07:13.966Z,11.28
2022-12-31T03:09:40.706Z,11.40
2022-12-31T03:12:27.721Z,11.42
2022-12-31T03:14:54.209Z,11.35
2022-12-31T03:17:20.749Z,11.33
2022-12-31T03:20:06.137Z,11.37
2022-12-31T03:22:36.352Z,11.29
2022-12-31T03:25:25.528Z,11.33
2022-12-31T03:27:52.436Z,11.31
2022-12-31T03:30:20.065Z,11.33
2022-12-31T03:32:47.141Z,11.34
2022-12-31T03:35:15.267Z,11.31
2022-12-31T03:37:42.351Z,11.23
2022-12-31T03:40:10.741Z,11.28
2022-12-31T03:42:37.225Z,11.26
2022-12-31T03:45:04.727Z,11.26
2022-12-31T03:47:31.243Z,11.14
2022-12-31T03:49:57.752Z,11.06
2022-12-31T03:52:24.302Z,11.11
2022-12-31T03:54:50.772Z,11.09
2022-12-31T03:57:17.211Z,11.06
2022-12-31T03:59:43.704Z,11.14
2022-12-31T04:02:10.400Z,11.12
2022-12-31T04:04:36.950Z,11.13
2022-12-31T04:07:03.373Z,11.08
2022-12-31T04:09:29.821Z,11.08
2022-12-31T04:11:56.223Z,11.11
2022-12-31T04:14:22.680Z,11.05
2022-12-31T04:16:49.063Z,11.11
2022-12-31T04:19:15.608Z,11.02
2022-12-31T04:21:42.031Z,11.01
2022-12-31T04:24:08.597Z,11.01
2022-12-31T04:26:36.791Z,11.01
2022-12-31T04:29:03.362Z,10.97
2022-12-31T04:31:29.999Z,11.04
2022-12-31T04:33:56.439Z,11.03
2022-12-31T04:36:22.945Z,10.96
2022-12-31T04:38:49.319Z,10.94
2022-12-31T04:41:18.737Z,10.99
2022-12-31T04:43:50.814Z,11.00
2022-12-31T04:46:23.487Z,10.98
2022-12-31T04:48:50.605Z,10.91
2022-12-31T04:51:17.137Z,10.93
2022-12-31T04:53:43.536Z,10.91
2022-12-31T04:56:10.028Z,10.97
2022-12-31T04:58:37.278Z,10.95
2022-12-31T05:01:04.373Z,10.94
2022-12-31T05:03:31.042Z,10.96
2022-12-31T05:06:06.209Z,10.88
2022-12-31T05:08:32.644Z,10.93
2022-12-31T05:10:59.261Z,10.88
2022-12-31T05:13:32.786Z,10.93
2022-12-31T05:15:59.747Z,10.99
2022-12-31T05:18:26.264Z,10.99
2022-12-31T05:20:52.631Z,10.97
2022-12-31T05:23:19.108Z,10.95
2022-12-31T05:25:46.813Z,10.96
2022-12-31T05:28:13.701Z,10.99
2022-12-31T05:30:40.505Z,11.01
2022-12-31T05:33:06.933Z,11.00
2022-12-31T05:35:33.445Z,11.03
2022-12-31T05:38:00.517Z,11.02
2022-12-31T05:40:28.058Z,11.04
2022-12-31T05:42:54.475Z,11.05
2022-12-31T05:45:26.784Z,11.08
2022-12-31T05:47:56.777Z,11.07
2022-12-31T05:50:23.164Z,11.10
2022-12-31T05:52:49.578Z,11.16
2022-12-31T05:55:16.190Z,11.12
2022-12-31T05:57:42.606Z,11.18
2022-12-31T06:00:10.130Z,11.21
2022-12-31T06:02:36.571Z,11.18
2022-12-31T06:05:02.986Z,11.23
2022-12-31T06:07:29.396Z,11.28
2022-12-31T06:09:55.819Z,11.25
2022-12-31T06:12:22.285Z,11.40
2022-12-31T06:14:48.708Z,11.40
2022-12-31T06:17:15.096Z,11.45
2022-12-31T06:19:41.486Z,11.47
2022-12-31T06:22:07.931Z,11.52
2022-12-31T06:24:34.371Z,11.57
2022-12-31T06:27:00.841Z,11.55
2022-12-31T06:29:27.223Z,11.59
2022-12-31T06:31:53.582Z,11.60
2022-12-31T06:34:19.952Z,11.63
2022-12-31T06:36:46.339Z,11.64
2022-12-31T06:39:12.854Z,11.68
2022-12-31T06:41:39.305Z,11.75
2022-12-31T06:44:06.041Z,11.84
2022-12-31T06:46:32.502Z,11.88
2022-12-31T06:48:58.996Z,11.92
2022-12-31T06:51:25.629Z,11.92
2022-12-31T06:53:52.278Z,11.98
2022-12-31T06:56:31.203Z,11.97
2022-12-31T06:59:00.617Z,12.14
2022-12-31T07:02:02.027Z,12.06
2022-12-31T07:04:46.751Z,12.21
2022-12-31T07:07:22.045Z,12.23
2022-12-31T07:09:55.786Z,12.24
2022-12-31T07:13:04.034Z,12.32
2022-12-31T07:15:36.429Z,12.36
2022-12-31T07:18:44.177Z,12.32
2022-12-31T07:21:13.551Z,12.45
2022-12-31T07:23:41.370Z,12.53
2022-12-31T07:26:17.515Z,12.57
2022-12-31T07:29:29.613Z,12.58
2022-12-31T07:32:05.111Z,12.62
2022-12-31T07:35:08.857Z,12.64
2022-12-31T07:37:46.407Z,12.64
2022-12-31T07:40:37.177Z,12.62
2022-12-31T07:43:25.612Z,12.78
2022-12-31T07:46:04.664Z,12.72
2022-12-31T07:48:31.236Z,12.80
2022-12-31T07:50:58.179Z,12.73
2022-12-31T07:53:25.247Z,12.89
2022-12-31T07:56:00.578Z,12.90
2022-12-31T07:58:33.025Z,12.94
2022-12-31T08:01:00.256Z,12.85
2022-12-31T08:04:18.122Z,12.86
2022-12-31T08:06:56.529Z,12.89
2022-12-31T08:09:32.946Z,12.87
2022-12-31T08:12:01.089Z,12.97
2022-12-31T08:14:29.004Z,12.99
2022-12-31T08:16:56.503Z,12.97
2022-12-31T08:19:31.321Z,12.98
2022-12-31T08:22:10.352Z,12.94
2022-12-31T08:24:58.541Z,12.97
2022-12-31T08:27:55.496Z,12.99
2022-12-31T08:30:23.618Z,12.96
2022-12-31T08:33:03.071Z,12.91
2022-12-31T08:35:51.300Z,12.81
2022-12-31T08:38:32.916Z,12.86
2022-12-31T08:41:15.355Z,12.81
2022-12-31T08:43:59.861Z,12.84
2022-12-31T08:46:30.514Z,12.84
2022-12-31T08:48:57.252Z,12.78
2022-12-31T08:51:25.682Z,12.83
2022-12-31T08:53:53.366Z,12.71
2022-12-31T08:56:32.785Z,12.79
2022-12-31T08:59:26.864Z,12.82
2022-12-31T09:02:02.335Z,12.77
2022-12-31T09:05:07.269Z,12.79
2022-12-31T09:07:39.835Z,12.78
2022-12-31T09:10:18.937Z,12.82
2022-12-31T09:12:47.634Z,12.88
2022-12-31T09:15:21.579Z,12.82
2022-12-31T09:17:50.322Z,12.86
2022-12-31T09:20:44.988Z,12.92
2022-12-31T09:23:12.614Z,13.00
2022-12-31T09:25:47.199Z,13.00
2022-12-31T09:28:43.166Z,12.89
2022-12-31T09:31:21.248Z,13.00
2022-12-31T09:33:52.685Z,13.10
2022-12-31T09:36:45.926Z,13.15
2022-12-31T09:39:41.160Z,13.10
2022-12-31T09:42:35.153Z,13.11
2022-12-31T09:45:07.864Z,13.20
2022-12-31T09:47:56.031Z,13.16
2022-12-31T09:50:23.706Z,13.28
2022-12-31T09:53:22.243Z,13.19
2022-12-31T09:55:51.959Z,13.28
2022-12-31T09:58:32.633Z,13.20
2022-12-31T10:01:07.480Z,13.30
2022-12-31T10:03:37.358Z,13.27
2022-12-31T10:06:06.464Z,13.19
2022-12-31T10:08:52.007Z,13.37
2022-12-31T10:11:44.732Z,13.47
2022-12-31T10:14:17.223Z,13.57
2022-12-31T10:16:53.213Z,13.52
2022-12-31T10:19:31.600Z,13.51
2022-12-31T10:22:40.438Z,13.55
2022-12-31T10:25:38.943Z,13.72
2022-12-31T10:28:30.797Z,13.66
2022-12-31T10:31:25.134Z,13.70
2022-12-31T10:33:57.343Z,13.76
2022-12-31T10:37:03.642Z,13.75
2022-12-31T10:39:51.835Z,13.82
2022-12-31T10:42:40.053Z,13.90
2022-12-31T10:45:44.322Z,13.89
2022-12-31T10:48:47.802Z,13.95
2022-12-31T10:51:25.006Z,14.03
2022-12-31T10:54:45.521Z,13.89
2022-12-31T10:57:34.990Z,14.01
2022-12-31T11:00:11.620Z,14.07
2022-12-31T11:02:38.109Z,14.12
2022-12-31T11:05:31.801Z,14.10
2022-12-31T11:08:25.868Z,14.13
2022-12-31T11:11:12.741Z,14.19
2022-12-31T11:14:00.930Z,14.24
2022-12-31T11:17:00.143Z,14.20
2022-12-31T11:19:38.485Z,14.19
2022-12-31T11:22:42.905Z,14.17
2022-12-31T11:25:12.696Z,14.14
2022-12-31T11:27:58.550Z,13.93
2022-12-31T11:30:56.109Z,14.03
2022-12-31T11:33:28.435Z,13.98
2022-12-31T11:36:25.621Z,14.03
2022-12-31T11:38:58.471Z,14.12
2022-12-31T11:41:39.896Z,14.11
2022-12-31T11:44:21.047Z,14.08
2022-12-31T11:46:57.925Z,14.13
2022-12-31T11:49:46.024Z,14.10
2022-12-31T11:52:45.198Z,14.13
2022-12-31T11:55:23.337Z,14.19
2022-12-31T11:57:51.434Z,14.26
2022-12-31T12:00:23.671Z,14.24
2022-12-31T12:02:58.776Z,14.28
2022-12-31T12:05:25.911Z,14.29
2022-12-31T12:07:53.190Z,14.35
2022-12-31T12:10:25.990Z,14.41
2022-12-31T12:12:56.964Z,14.40
2022-12-31T12:15:26.597Z,14.36
2022-12-31T12:17:55.233Z,14.38
2022-12-31T12:20:29.044Z,14.37
2022-12-31T12:22:57.192Z,14.35
2022-12-31T12:25:36.854Z,14.25
2022-12-31T12:28:18.588Z,14.30
2022-12-31T12:30:54.956Z,14.27
2022-12-31T12:33:21.806Z,14.28
2022-12-31T12:35:48.363Z,14.29
2022-12-31T12:38:19.801Z,14.25
2022-12-31T12:41:00.977Z,14.16
2022-12-31T12:43:32.587Z,14.21
2022-12-31T12:46:01.311Z,14.29
2022-12-31T12:48:40.959Z,14.38
2022-12-31T12:51:20.152Z,14.31
2022-12-31T12:54:24.012Z,14.37
2022-12-31T12:57:10.480Z,14.24
2022-12-31T12:59:58.384Z,14.38
2022-12-31T13:02:55.905Z,14.36
2022-12-31T13:05:34.365Z,14.45
2022-12-31T13:08:09.827Z,14.44
2022-12-31T13:10:42.285Z,14.45
2022-12-31T13:13:45.845Z,14.38
2022-12-31T13:16:17.087Z,14.35
2022-12-31T13:18:43.454Z,14.42
2022-12-31T13:21:50.513Z,14.27
2022-12-31T13:25:06.424Z,14.24
2022-12-31T13:27:39.629Z,14.26
2022-12-31T13:30:36.705Z,14.19
2022-12-31T13:33:14.294Z,14.28
2022-12-31T13:35:45.933Z,14.23
2022-12-31T13:38:25.642Z,14.19
2022-12-31T13:41:05.312Z,14.13
2022-12-31T13:43:35.052Z,14.22
2022-12-31T13:46:04.192Z,14.02
2022-12-31T13:48:36.138Z,14.12
2022-12-31T13:51:19.073Z,14.07
2022-12-31T13:53:53.685Z,14.10
2022-12-31T13:56:24.737Z,14.17
2022-12-31T13:59:05.495Z,14.11
2022-12-31T14:01:42.527Z,14.16
2022-12-31T14:04:30.128Z,14.15
2022-12-31T14:07:00.016Z,14.12
2022-12-31T14:09:29.009Z,14.10
2022-12-31T14:12:17.845Z,14.13
2022-12-31T14:15:08.192Z,14.06
2022-12-31T14:18:08.809Z,14.05
2022-12-31T14:20:48.258Z,14.04
2022-12-31T14:23:27.045Z,13.94
2022-12-31T14:25:58.743Z,13.98
2022-12-31T14:28:31.531Z,13.92
2022-12-31T14:31:05.277Z,13.99
2022-12-31T14:33:43.043Z,13.88
2022-12-31T14:36:28.000Z,13.90
2022-12-31T14:39:16.466Z,13.82
2022-12-31T14:42:03.537Z,13.87
2022-12-31T14:44:40.823Z,13.79
2022-12-31T14:47:40.677Z,13.70
2022-12-31T14:50:13.369Z,13.73
2022-12-31T14:53:06.525Z,13.73
2022-12-31T14:55:34.927Z,13.82
2022-12-31T15:01:08.513Z,13.78
2022-12-31T15:03:45.524Z,13.84
2022-12-31T15:06:32.780Z,13.71
2022-12-31T15:09:17.415Z,13.83
2022-12-31T15:11:46.710Z,13.86
2022-12-31T15:14:26.380Z,13.80
2022-12-31T15:17:17.836Z,13.78
2022-12-31T15:19:59.537Z,13.78
2022-12-31T15:22:49.318Z,13.73
2022-12-31T15:25:41.494Z,13.67
2022-12-31T15:28:50.573Z,13.71
2022-12-31T15:31:19.606Z,13.77
2022-12-31T15:34:07.305Z,13.75
2022-12-31T15:36:35.902Z,13.79
2022-12-31T15:39:11.482Z,13.73
2022-12-31T15:42:02.966Z,13.87
2022-12-31T15:44:31.539Z,13.76
2022-12-31T15:47:03.053Z,13.90
2022-12-31T15:49:36.473Z,13.87
2022-12-31T15:52:20.801Z,13.88
2022-12-31T15:54:51.738Z,13.97
2022-12-31T15:57:30.215Z,14.06
2022-12-31T15:59:59.509Z,14.01
2022-12-31T16:02:27.796Z,14.14
2022-12-31T16:04:54.990Z,14.20
2022-12-31T16:07:22.353Z,14.29
2022-12-31T16:09:57.319Z,14.24
2022-12-31T16:12:32.471Z,14.28
2022-12-31T16:15:00.135Z,14.38
2022-12-31T16:17:34.115Z,14.39
2022-12-31T16:20:02.250Z,14.38
2022-12-31T16:22:39.428Z,14.34
2022-12-31T16:27:54.128Z,14.40
2022-12-31T16:30:26.482Z,14.38
2022-12-31T16:32:54.136Z,14.36
2022-12-31T16:35:32.377Z,14.47
2022-12-31T16:38:08.085Z,14.49
2022-12-31T16:40:34.900Z,14.47
2022-12-31T16:43:01.563Z,14.48
2022-12-31T16:45:34.734Z,14.43
2022-12-31T16:48:12.806Z,14.41
2022-12-31T16:50:49.664Z,14.53
2022-12-31T16:53:18.714Z,14.52
2022-12-31T16:55:54.988Z,14.50
2022-12-31T16:58:28.234Z,14.50
2022-12-31T17:00:56.011Z,14.55
2022-12-31T17:03:23.826Z,14.68
2022-12-31T17:05:55.133Z,14.58
2022-12-31T17:08:27.624Z,14.55
2022-12-31T17:10:54.190Z,14.59
2022-12-31T17:13:29.576Z,14.65
2022-12-31T17:15:56.980Z,14.48
2022-12-31T17:18:26.445Z,14.61
2022-12-31T17:20:54.572Z,14.58
2022-12-31T17:23:31.926Z,14.51
2022-12-31T17:26:00.719Z,14.59
2022-12-31T17:28:28.004Z,14.61
2022-12-31T17:30:59.878Z,14.50
2022-12-31T17:33:28.665Z,14.52
2022-12-31T17:35:57.313Z,14.53
2022-12-31T17:38:23.649Z,14.54
2022-12-31T17:40:52.511Z,14.56
2022-12-31T17:43:20.661Z,14.50
2022-12-31T17:45:47.858Z,14.48
2022-12-31T17:48:16.020Z,14.59
2022-12-31T17:50:49.902Z,14.54
2022-12-31T17:53:17.056Z,14.63
2022-12-31T17:55:45.800Z,14.65
2022-12-31T17:58:26.099Z,14.66
2022-12-31T18:00:56.823Z,14.74
2022-12-31T18:03:23.347Z,14.74
2022-12-31T18:05:49.760Z,14.77
2022-12-31T18:08:16.130Z,14.77
2022-12-31T18:10:43.505Z,14.84
2022-12-31T18:13:19.125Z,14.80
2022-12-31T18:15:45.853Z,14.88
2022-12-31T18:18:24.722Z,14.80
2022-12-31T18:20:57.661Z,14.82
2022-12-31T18:23:26.789Z,14.79
2022-12-31T18:25:53.513Z,14.93
2022-12-31T18:28:19.969Z,14.91
2022-12-31T18:30:46.848Z,14.86
2022-12-31T18:33:16.789Z,14.93
2022-12-31T18:36:10.449Z,15.05
2022-12-31T18:38:31.472Z,15.03
2022-12-31T18:40:59.319Z,15.07
2022-12-31T18:43:25.925Z,15.10
2022-12-31T18:45:53.050Z,15.10
2022-12-31T18:48:19.606Z,15.11
2022-12-31T18:50:47.039Z,15.07
2022-12-31T18:53:18.975Z,15.07
2022-12-31T18:55:47.977Z,15.14
2022-12-31T18:58:15.753Z,15.10
2022-12-31T19:00:42.890Z,15.10
2022-12-31T19:03:22.633Z,15.12
2022-12-31T19:05:52.255Z,15.05
2022-12-31T19:08:19.812Z,14.97
2022-12-31T19:10:47.208Z,15.14
2022-12-31T19:13:15.064Z,15.07
2022-12-31T19:15:52.087Z,14.98
2022-12-31T19:18:18.989Z,15.09
2022-12-31T19:20:45.482Z,15.06
2022-12-31T19:23:17.916Z,15.09
2022-12-31T19:25:45.102Z,15.17
2022-12-31T19:28:17.377Z,15.15
2022-12-31T19:30:43.945Z,15.20
2022-12-31T19:33:10.682Z,15.15
2022-12-31T19:35:38.269Z,15.00
2022-12-31T19:38:06.152Z,15.05
2022-12-31T19:40:32.529Z,14.94
2022-12-31T19:42:58.956Z,15.07
2022-12-31T19:45:28.905Z,15.03
2022-12-31T19:47:56.491Z,14.94
2022-12-31T19:50:26.133Z,15.12
2022-12-31T19:52:55.137Z,15.12
2022-12-31T19:55:25.017Z,15.07
2022-12-31T19:57:52.331Z,15.01
2022-12-31T20:00:19.773Z,15.08
2022-12-31T20:02:47.935Z,15.09
2022-12-31T20:05:15.940Z,15.09
2022-12-31T20:07:42.385Z,15.08
2022-12-31T20:10:10.761Z,15.25
2022-12-31T20:12:42.326Z,15.21
2022-12-31T20:15:10.890Z,15.16
2022-12-31T20:17:37.327Z,15.19
2022-12-31T20:20:04.961Z,15.12
2022-12-31T20:22:31.426Z,15.21
2022-12-31T20:24:58.163Z,15.21
2022-12-31T20:27:24.607Z,15.15
2022-12-31T20:29:51.037Z,15.12
2022-12-31T20:32:17.496Z,15.16
2022-12-31T20:34:43.915Z,15.07
2022-12-31T20:37:10.341Z,15.10
2022-12-31T20:39:37.220Z,15.14
2022-12-31T20:42:03.878Z,15.07
2022-12-31T20:44:30.406Z,15.14
2022-12-31T20:46:56.768Z,15.08
2022-12-31T20:49:37.526Z,14.99
2022-12-31T20:52:09.665Z,15.06
2022-12-31T20:54:37.202Z,15.06
2022-12-31T20:57:03.661Z,15.07
2022-12-31T20:59:30.092Z,15.08
2022-12-31T21:02:20.616Z,15.12
2022-12-31T21:04:45.172Z,15.11
2022-12-31T21:07:11.698Z,15.16
2022-12-31T21:09:38.115Z,15.17
2022-12-31T21:12:23.074Z,15.16
2022-12-31T21:14:49.454Z,15.14
2022-12-31T21:17:15.836Z,15.14
2022-12-31T21:19:42.328Z,15.10
2022-12-31T21:22:08.765Z,15.18
2022-12-31T21:24:35.239Z,15.18
2022-12-31T21:27:01.661Z,15.21
2022-12-31T21:29:32.783Z,15.25
2022-12-31T21:32:01.056Z,15.25
2022-12-31T21:34:27.493Z,15.24
2022-12-31T21:36:53.973Z,15.20
2022-12-31T21:39:20.417Z,15.21
2022-12-31T21:41:52.752Z,15.17
2022-12-31T21:44:23.877Z,15.30
2022-12-31T21:47:34.859Z,15.15
2022-12-31T21:50:01.990Z,15.23
2022-12-31T21:52:33.402Z,15.22
2022-12-31T21:55:19.734Z,15.19
2022-12-31T21:58:24.210Z,15.20
2022-12-31T22:00:53.372Z,15.21
2022-12-31T22:03:27.433Z,15.24
2022-12-31T22:06:00.735Z,15.22
2022-12-31T22:08:28.501Z,15.24
2022-12-31T22:10:56.569Z,15.20
2022-12-31T22:13:23.068Z,15.16
2022-12-31T22:15:58.733Z,15.22
2022-12-31T22:18:28.573Z,15.21
2022-12-31T22:21:07.674Z,15.18
2022-12-31T22:23:36.820Z,15.09
2022-12-31T22:26:04.372Z,15.14
2022-12-31T22:28:39.754Z,15.13
2022-12-31T22:31:07.888Z,15.10
2022-12-31T22:33:34.373Z,15.06
2022-12-31T22:36:07.320Z,15.08
2022-12-31T22:38:34.453Z,15.11
2022-12-31T22:41:08.717Z,15.09
2022-12-31T22:43:37.003Z,15.13
2022-12-31T22:46:14.863Z,15.06
2022-12-31T22:48:41.890Z,15.11
2022-12-31T22:51:09.001Z,15.23
2022-12-31T22:53:35.897Z,15.25
2022-12-31T22:56:02.956Z,15.21
2022-12-31T22:58:29.511Z,15.23
2022-12-31T23:00:55.944Z,15.21
2022-12-31T23:03:22.550Z,15.27
2022-12-31T23:05:51.582Z,15.30
2022-12-31T23:08:23.145Z,15.33
2022-12-31T23:11:01.278Z,15.15
2022-12-31T23:14:04.708Z,15.10
2022-12-31T23:16:49.339Z,15.22
2022-12-31T23:19:34.821Z,15.27
2022-12-31T23:22:19.751Z,15.29
2022-12-31T23:24:46.159Z,15.18
2022-12-31T23:27:12.590Z,15.15
2022-12-31T23:29:46.258Z,15.11
2022-12-31T23:32:15.143Z,15.14
2022-12-31T23:34:42.759Z,14.97
2022-12-31T23:37:09.270Z,14.99
2022-12-31T23:39:35.872Z,14.83
2022-12-31T23:42:02.313Z,14.82
2022-12-31T23:44:28.811Z,14.81
2022-12-31T23:46:55.415Z,14.82
2022-12-31T23:49:21.908Z,14.58
2022-12-31T23:51:48.383Z,14.65
2022-12-31T23:54:15.782Z,14.72
2022-12-31T23:56:42.290Z,14.69
2022-12-31T23:59:09.828Z,14.65
